This is the latest recevied weather packets stored in our database for station/object VK5KJP. If no packets are shown the sender has not sent any weather packets the latest 10 day(s).
| Time | Temp. | Humidity | Pressure | Rain* | Wind** | Luminosity | Snow |
|---|---|---|---|---|---|---|---|
| 1777769137 | 17.22° C | 66% | 1013.9 hPa | 0 mm | - | - | - |
| 1777768589 | 17.22° C | 66% | 1013.9 hPa | 0 mm | - | - | - |
| 1777766127 | 16.11° C | 69% | 1013.9 hPa | 0 mm | - | - | - |
| 1777765548 | 16.11° C | 70% | 1013.8 hPa | 0 mm | - | - | - |
| 1777761927 | 13.89° C | 78% | 1014.2 hPa | 0 mm | - | - | - |
| 1777756537 | 12.22° C | 85% | 1013.7 hPa | 0 mm | - | - | - |
| 1777748137 | 11.67° C | 87% | 1012.6 hPa | 0 mm | - | - | - |
| 1777747548 | 12.22° C | 87% | 1012.5 hPa | 0 mm | - | - | - |
| 1777746368 | 12.78° C | 86% | 1012.4 hPa | 0 mm | - | - | - |
| 1777745147 | 12.78° C | 86% | 1012.4 hPa | 0 mm | - | - | - |
| 1777741547 | 12.78° C | 85% | 1012.4 hPa | 0 mm | - | - | - |
| 1777740927 | 12.78° C | 85% | 1012.5 hPa | 0 mm | - | - | - |
| 1777740348 | 12.78° C | 84% | 1012.6 hPa | 0 mm | - | - | - |
| 1777737368 | 13.33° C | 81% | 1012.7 hPa | 0 mm | - | - | - |
| 1777736727 | 12.78° C | 82% | 1012.7 hPa | 0 mm | - | - | - |
| 1777734350 | 12.22° C | 83% | 1012.9 hPa | 0 mm | - | - | - |
| 1777733747 | 12.22° C | 85% | 1013 hPa | 0 mm | - | - | - |
| 1777730147 | 13.89° C | 77% | 1013.1 hPa | 0 mm | - | - | - |
| 1777724747 | 14.44° C | 76% | 1013.4 hPa | 0 mm | - | - | - |
| 1777724127 | 13.89° C | 75% | 1013.4 hPa | 0 mm | - | - | - |
| 1777722347 | 13.33° C | 78% | 1013.2 hPa | 0 mm | - | - | - |
| 1777719927 | 13.33° C | 80% | 1013.1 hPa | 0 mm | - | - | - |
| 1777717547 | 13.89° C | 88% | 1012.6 hPa | 0 mm | - | - | - |
| 1777716367 | 14.44° C | 91% | 1012.5 hPa | 0 mm | - | - | - |
| 1777708547 | 16.67° C | 82% | 1011.5 hPa | 0 mm | - | - | - |
* Rain latest hour (hover to see other rain measurements)
** Current wind speed in m/s (hover to see current wind gust speed)